sensor_id;sensor_type;location;lat;lon;timestamp;temperature;humidity
74666;DHT22;71408;50.106;8.694;2023-08-08T00:01:21;22.70;48.80
74666;DHT22;71408;50.106;8.694;2023-08-08T00:03:46;22.80;48.80
74666;DHT22;71408;50.106;8.694;2023-08-08T00:06:12;22.80;48.90
74666;DHT22;71408;50.106;8.694;2023-08-08T00:08:37;22.70;48.90
74666;DHT22;71408;50.106;8.694;2023-08-08T00:11:03;22.70;48.90
74666;DHT22;71408;50.106;8.694;2023-08-08T00:13:28;22.70;48.90
74666;DHT22;71408;50.106;8.694;2023-08-08T00:15:54;22.70;49.00
74666;DHT22;71408;50.106;8.694;2023-08-08T00:18:19;22.80;48.90
74666;DHT22;71408;50.106;8.694;2023-08-08T00:20:45;22.70;48.90
74666;DHT22;71408;50.106;8.694;2023-08-08T00:23:10;22.80;48.90
74666;DHT22;71408;50.106;8.694;2023-08-08T00:25:36;22.80;48.90
74666;DHT22;71408;50.106;8.694;2023-08-08T00:28:02;22.70;48.90
74666;DHT22;71408;50.106;8.694;2023-08-08T00:30:28;22.70;49.00
74666;DHT22;71408;50.106;8.694;2023-08-08T00:32:53;22.70;49.00
74666;DHT22;71408;50.106;8.694;2023-08-08T00:35:18;22.70;48.90
74666;DHT22;71408;50.106;8.694;2023-08-08T00:37:44;22.70;48.90
74666;DHT22;71408;50.106;8.694;2023-08-08T00:40:10;22.70;48.90
74666;DHT22;71408;50.106;8.694;2023-08-08T00:42:35;22.70;48.90
74666;DHT22;71408;50.106;8.694;2023-08-08T00:45:01;22.70;48.90
74666;DHT22;71408;50.106;8.694;2023-08-08T00:47:32;22.70;48.90
74666;DHT22;71408;50.106;8.694;2023-08-08T00:49:58;22.70;48.90
74666;DHT22;71408;50.106;8.694;2023-08-08T00:52:24;22.70;48.90
74666;DHT22;71408;50.106;8.694;2023-08-08T00:54:51;22.70;48.90
74666;DHT22;71408;50.106;8.694;2023-08-08T00:57:16;22.70;48.90
74666;DHT22;71408;50.106;8.694;2023-08-08T00:59:42;22.70;48.90
74666;DHT22;71408;50.106;8.694;2023-08-08T01:02:07;22.70;48.90
74666;DHT22;71408;50.106;8.694;2023-08-08T01:04:33;22.70;48.90
74666;DHT22;71408;50.106;8.694;2023-08-08T01:07:20;22.70;48.90
74666;DHT22;71408;50.106;8.694;2023-08-08T01:10:09;22.70;48.90
74666;DHT22;71408;50.106;8.694;2023-08-08T01:12:41;22.60;48.90
74666;DHT22;71408;50.106;8.694;2023-08-08T01:15:07;22.60;49.00
74666;DHT22;71408;50.106;8.694;2023-08-08T01:17:36;22.60;49.00
74666;DHT22;71408;50.106;8.694;2023-08-08T01:20:03;22.60;49.10
74666;DHT22;71408;50.106;8.694;2023-08-08T01:22:30;22.60;49.10
74666;DHT22;71408;50.106;8.694;2023-08-08T01:24:57;22.60;49.20
74666;DHT22;71408;50.106;8.694;2023-08-08T01:27:24;22.60;49.10
74666;DHT22;71408;50.106;8.694;2023-08-08T01:29:50;22.60;49.70
74666;DHT22;71408;50.106;8.694;2023-08-08T01:32:15;22.60;49.20
74666;DHT22;71408;50.106;8.694;2023-08-08T01:34:41;22.60;49.10
74666;DHT22;71408;50.106;8.694;2023-08-08T01:37:09;22.50;49.10
74666;DHT22;71408;50.106;8.694;2023-08-08T01:39:36;22.60;49.10
74666;DHT22;71408;50.106;8.694;2023-08-08T01:42:03;22.60;49.20
74666;DHT22;71408;50.106;8.694;2023-08-08T01:44:30;22.60;49.20
74666;DHT22;71408;50.106;8.694;2023-08-08T01:46:57;22.60;49.20
74666;DHT22;71408;50.106;8.694;2023-08-08T01:49:23;22.60;49.20
74666;DHT22;71408;50.106;8.694;2023-08-08T01:51:48;22.50;49.10
74666;DHT22;71408;50.106;8.694;2023-08-08T01:54:15;22.50;49.10
74666;DHT22;71408;50.106;8.694;2023-08-08T01:56:41;22.60;49.20
74666;DHT22;71408;50.106;8.694;2023-08-08T01:59:07;22.60;49.80
74666;DHT22;71408;50.106;8.694;2023-08-08T02:01:32;22.60;49.20
74666;DHT22;71408;50.106;8.694;2023-08-08T02:03:57;22.50;49.20
74666;DHT22;71408;50.106;8.694;2023-08-08T02:06:23;22.50;49.20
74666;DHT22;71408;50.106;8.694;2023-08-08T02:08:48;22.60;49.20
74666;DHT22;71408;50.106;8.694;2023-08-08T02:11:14;22.50;49.20
74666;DHT22;71408;50.106;8.694;2023-08-08T02:13:39;22.60;49.10
74666;DHT22;71408;50.106;8.694;2023-08-08T02:16:05;22.60;49.10
74666;DHT22;71408;50.106;8.694;2023-08-08T02:18:30;22.60;49.10
74666;DHT22;71408;50.106;8.694;2023-08-08T02:20:56;22.60;49.10
74666;DHT22;71408;50.106;8.694;2023-08-08T02:23:21;22.60;49.10
74666;DHT22;71408;50.106;8.694;2023-08-08T02:25:47;22.60;49.10
74666;DHT22;71408;50.106;8.694;2023-08-08T02:28:12;22.60;49.10
74666;DHT22;71408;50.106;8.694;2023-08-08T02:30:38;22.60;49.10
74666;DHT22;71408;50.106;8.694;2023-08-08T02:33:03;22.60;49.10
74666;DHT22;71408;50.106;8.694;2023-08-08T02:35:29;22.60;49.10
74666;DHT22;71408;50.106;8.694;2023-08-08T02:37:55;22.60;49.10
74666;DHT22;71408;50.106;8.694;2023-08-08T02:40:20;22.60;49.20
74666;DHT22;71408;50.106;8.694;2023-08-08T02:42:49;22.50;49.20
74666;DHT22;71408;50.106;8.694;2023-08-08T02:45:14;22.50;49.20
74666;DHT22;71408;50.106;8.694;2023-08-08T02:47:40;22.50;49.20
74666;DHT22;71408;50.106;8.694;2023-08-08T02:50:05;22.60;49.30
74666;DHT22;71408;50.106;8.694;2023-08-08T02:52:31;22.50;49.30
74666;DHT22;71408;50.106;8.694;2023-08-08T02:54:56;22.50;49.40
74666;DHT22;71408;50.106;8.694;2023-08-08T02:57:22;22.50;49.40
74666;DHT22;71408;50.106;8.694;2023-08-08T02:59:47;22.50;49.30
74666;DHT22;71408;50.106;8.694;2023-08-08T03:02:13;22.50;49.30
74666;DHT22;71408;50.106;8.694;2023-08-08T03:04:38;22.50;49.30
74666;DHT22;71408;50.106;8.694;2023-08-08T03:07:04;22.50;49.30
74666;DHT22;71408;50.106;8.694;2023-08-08T03:09:30;22.50;49.30
74666;DHT22;71408;50.106;8.694;2023-08-08T03:11:55;22.50;49.40
74666;DHT22;71408;50.106;8.694;2023-08-08T03:14:21;22.50;49.30
74666;DHT22;71408;50.106;8.694;2023-08-08T03:16:46;22.50;49.30
74666;DHT22;71408;50.106;8.694;2023-08-08T03:19:12;22.50;49.30
74666;DHT22;71408;50.106;8.694;2023-08-08T03:21:37;22.50;49.40
74666;DHT22;71408;50.106;8.694;2023-08-08T03:24:03;22.50;49.40
74666;DHT22;71408;50.106;8.694;2023-08-08T03:26:28;22.50;49.30
74666;DHT22;71408;50.106;8.694;2023-08-08T03:28:54;22.50;49.30
74666;DHT22;71408;50.106;8.694;2023-08-08T03:31:20;22.50;49.30
74666;DHT22;71408;50.106;8.694;2023-08-08T03:33:45;22.50;49.30
74666;DHT22;71408;50.106;8.694;2023-08-08T03:36:11;22.50;49.30
74666;DHT22;71408;50.106;8.694;2023-08-08T03:38:36;22.50;49.30
74666;DHT22;71408;50.106;8.694;2023-08-08T03:41:03;22.50;49.40
74666;DHT22;71408;50.106;8.694;2023-08-08T03:43:28;22.50;49.40
74666;DHT22;71408;50.106;8.694;2023-08-08T03:45:54;22.50;49.30
74666;DHT22;71408;50.106;8.694;2023-08-08T03:48:19;22.50;49.30
74666;DHT22;71408;50.106;8.694;2023-08-08T03:50:45;22.50;49.40
74666;DHT22;71408;50.106;8.694;2023-08-08T03:53:11;22.50;49.40
74666;DHT22;71408;50.106;8.694;2023-08-08T03:55:37;22.50;49.40
74666;DHT22;71408;50.106;8.694;2023-08-08T03:58:03;22.40;49.40
74666;DHT22;71408;50.106;8.694;2023-08-08T04:00:28;22.50;49.40
74666;DHT22;71408;50.106;8.694;2023-08-08T04:02:54;22.50;49.40
74666;DHT22;71408;50.106;8.694;2023-08-08T04:05:19;22.40;49.40
74666;DHT22;71408;50.106;8.694;2023-08-08T04:07:45;22.40;49.40
74666;DHT22;71408;50.106;8.694;2023-08-08T04:10:10;22.40;49.40
74666;DHT22;71408;50.106;8.694;2023-08-08T04:12:36;22.50;49.40
74666;DHT22;71408;50.106;8.694;2023-08-08T04:15:01;22.40;49.40
74666;DHT22;71408;50.106;8.694;2023-08-08T04:17:27;22.50;49.50
74666;DHT22;71408;50.106;8.694;2023-08-08T04:19:52;22.40;49.40
74666;DHT22;71408;50.106;8.694;2023-08-08T04:22:18;22.40;49.40
74666;DHT22;71408;50.106;8.694;2023-08-08T04:24:43;22.40;49.40
74666;DHT22;71408;50.106;8.694;2023-08-08T04:27:09;22.40;49.50
74666;DHT22;71408;50.106;8.694;2023-08-08T04:29:35;22.40;49.40
74666;DHT22;71408;50.106;8.694;2023-08-08T04:32:01;22.40;49.40
74666;DHT22;71408;50.106;8.694;2023-08-08T04:34:26;22.40;49.40
74666;DHT22;71408;50.106;8.694;2023-08-08T04:36:52;22.40;49.50
74666;DHT22;71408;50.106;8.694;2023-08-08T04:39:17;22.40;49.60
74666;DHT22;71408;50.106;8.694;2023-08-08T04:41:43;22.40;49.50
74666;DHT22;71408;50.106;8.694;2023-08-08T04:44:08;22.40;49.50
74666;DHT22;71408;50.106;8.694;2023-08-08T04:46:34;22.40;49.50
74666;DHT22;71408;50.106;8.694;2023-08-08T04:48:59;22.40;49.50
74666;DHT22;71408;50.106;8.694;2023-08-08T04:51:25;22.40;49.60
74666;DHT22;71408;50.106;8.694;2023-08-08T04:53:50;22.30;49.50
74666;DHT22;71408;50.106;8.694;2023-08-08T04:56:16;22.30;49.50
74666;DHT22;71408;50.106;8.694;2023-08-08T04:58:41;22.30;49.50
74666;DHT22;71408;50.106;8.694;2023-08-08T05:01:06;22.40;49.60
74666;DHT22;71408;50.106;8.694;2023-08-08T05:03:34;22.40;49.50
74666;DHT22;71408;50.106;8.694;2023-08-08T05:05:59;22.30;49.50
74666;DHT22;71408;50.106;8.694;2023-08-08T05:08:25;22.40;49.60
74666;DHT22;71408;50.106;8.694;2023-08-08T05:10:51;22.30;49.50
74666;DHT22;71408;50.106;8.694;2023-08-08T05:13:16;22.30;49.50
74666;DHT22;71408;50.106;8.694;2023-08-08T05:15:42;22.30;49.60
74666;DHT22;71408;50.106;8.694;2023-08-08T05:18:07;22.40;49.60
74666;DHT22;71408;50.106;8.694;2023-08-08T05:20:33;22.30;49.50
74666;DHT22;71408;50.106;8.694;2023-08-08T05:22:58;22.40;49.60
74666;DHT22;71408;50.106;8.694;2023-08-08T05:25:24;22.30;49.60
74666;DHT22;71408;50.106;8.694;2023-08-08T05:27:49;22.40;49.60
74666;DHT22;71408;50.106;8.694;2023-08-08T05:30:15;22.30;49.50
74666;DHT22;71408;50.106;8.694;2023-08-08T05:32:40;22.40;49.50
74666;DHT22;71408;50.106;8.694;2023-08-08T05:35:06;22.40;49.50
74666;DHT22;71408;50.106;8.694;2023-08-08T05:37:32;22.40;49.50
74666;DHT22;71408;50.106;8.694;2023-08-08T05:39:57;22.30;49.50
74666;DHT22;71408;50.106;8.694;2023-08-08T05:42:23;22.30;49.60
74666;DHT22;71408;50.106;8.694;2023-08-08T05:44:48;22.30;49.60
74666;DHT22;71408;50.106;8.694;2023-08-08T05:47:14;22.30;49.70
74666;DHT22;71408;50.106;8.694;2023-08-08T05:49:39;22.30;49.70
74666;DHT22;71408;50.106;8.694;2023-08-08T05:52:07;22.30;49.70
74666;DHT22;71408;50.106;8.694;2023-08-08T05:54:33;22.30;49.80
74666;DHT22;71408;50.106;8.694;2023-08-08T05:56:58;22.20;49.80
74666;DHT22;71408;50.106;8.694;2023-08-08T05:59:24;22.20;49.90
74666;DHT22;71408;50.106;8.694;2023-08-08T06:01:49;22.20;49.80
74666;DHT22;71408;50.106;8.694;2023-08-08T06:04:15;22.20;49.80
74666;DHT22;71408;50.106;8.694;2023-08-08T06:06:40;22.20;49.80
74666;DHT22;71408;50.106;8.694;2023-08-08T06:09:06;22.20;49.80
74666;DHT22;71408;50.106;8.694;2023-08-08T06:11:34;22.20;49.80
74666;DHT22;71408;50.106;8.694;2023-08-08T06:13:59;22.30;49.90
74666;DHT22;71408;50.106;8.694;2023-08-08T06:16:25;22.20;49.80
74666;DHT22;71408;50.106;8.694;2023-08-08T06:18:51;22.20;49.80
74666;DHT22;71408;50.106;8.694;2023-08-08T06:21:16;22.20;49.80
74666;DHT22;71408;50.106;8.694;2023-08-08T06:23:42;22.20;49.80
74666;DHT22;71408;50.106;8.694;2023-08-08T06:26:07;22.20;49.80
74666;DHT22;71408;50.106;8.694;2023-08-08T06:28:33;22.20;49.80
74666;DHT22;71408;50.106;8.694;2023-08-08T06:30:59;22.20;49.80
74666;DHT22;71408;50.106;8.694;2023-08-08T06:33:24;22.20;49.80
74666;DHT22;71408;50.106;8.694;2023-08-08T06:35:50;22.20;49.90
74666;DHT22;71408;50.106;8.694;2023-08-08T06:38:15;22.20;49.80
74666;DHT22;71408;50.106;8.694;2023-08-08T06:40:41;22.20;49.80
74666;DHT22;71408;50.106;8.694;2023-08-08T06:43:06;22.20;49.80
74666;DHT22;71408;50.106;8.694;2023-08-08T06:45:32;22.20;49.80
74666;DHT22;71408;50.106;8.694;2023-08-08T06:47:57;22.20;49.80
74666;DHT22;71408;50.106;8.694;2023-08-08T06:50:23;22.20;49.80
74666;DHT22;71408;50.106;8.694;2023-08-08T06:52:50;22.20;49.80
74666;DHT22;71408;50.106;8.694;2023-08-08T06:55:15;22.30;49.80
74666;DHT22;71408;50.106;8.694;2023-08-08T06:57:41;22.30;49.90
74666;DHT22;71408;50.106;8.694;2023-08-08T07:00:07;22.20;49.80
74666;DHT22;71408;50.106;8.694;2023-08-08T07:02:33;22.30;49.80
74666;DHT22;71408;50.106;8.694;2023-08-08T07:04:59;22.30;49.70
74666;DHT22;71408;50.106;8.694;2023-08-08T07:07:24;22.30;49.60
74666;DHT22;71408;50.106;8.694;2023-08-08T07:09:50;22.30;49.50
74666;DHT22;71408;50.106;8.694;2023-08-08T07:12:15;22.30;49.60
74666;DHT22;71408;50.106;8.694;2023-08-08T07:14:41;22.30;49.60
74666;DHT22;71408;50.106;8.694;2023-08-08T07:17:07;22.30;49.60
74666;DHT22;71408;50.106;8.694;2023-08-08T07:19:32;22.30;49.70
74666;DHT22;71408;50.106;8.694;2023-08-08T07:21:58;22.30;49.60
74666;DHT22;71408;50.106;8.694;2023-08-08T07:24:23;22.30;49.60
74666;DHT22;71408;50.106;8.694;2023-08-08T07:26:56;22.30;49.60
74666;DHT22;71408;50.106;8.694;2023-08-08T07:29:21;22.40;49.50
74666;DHT22;71408;50.106;8.694;2023-08-08T07:31:47;22.30;49.50
74666;DHT22;71408;50.106;8.694;2023-08-08T07:34:12;22.30;49.50
74666;DHT22;71408;50.106;8.694;2023-08-08T07:36:38;22.40;49.40
74666;DHT22;71408;50.106;8.694;2023-08-08T07:39:03;22.50;49.20
74666;DHT22;71408;50.106;8.694;2023-08-08T07:41:29;22.50;49.20
74666;DHT22;71408;50.106;8.694;2023-08-08T07:43:55;22.50;49.30
74666;DHT22;71408;50.106;8.694;2023-08-08T07:46:20;22.50;49.20
74666;DHT22;71408;50.106;8.694;2023-08-08T07:48:46;22.50;49.10
74666;DHT22;71408;50.106;8.694;2023-08-08T07:51:11;22.50;49.30
74666;DHT22;71408;50.106;8.694;2023-08-08T07:53:37;22.50;49.30
74666;DHT22;71408;50.106;8.694;2023-08-08T07:56:02;22.50;49.30
74666;DHT22;71408;50.106;8.694;2023-08-08T07:58:28;22.50;49.90
74666;DHT22;71408;50.106;8.694;2023-08-08T08:00:53;22.60;49.20
74666;DHT22;71408;50.106;8.694;2023-08-08T08:03:19;22.50;49.10
74666;DHT22;71408;50.106;8.694;2023-08-08T08:05:44;22.50;49.20
74666;DHT22;71408;50.106;8.694;2023-08-08T08:08:10;22.50;49.00
74666;DHT22;71408;50.106;8.694;2023-08-08T08:10:35;22.50;49.00
74666;DHT22;71408;50.106;8.694;2023-08-08T08:13:01;22.50;49.00
74666;DHT22;71408;50.106;8.694;2023-08-08T08:15:27;22.50;49.10
74666;DHT22;71408;50.106;8.694;2023-08-08T08:17:53;22.50;48.80
74666;DHT22;71408;50.106;8.694;2023-08-08T08:20:19;22.50;48.80
74666;DHT22;71408;50.106;8.694;2023-08-08T08:22:44;22.50;48.70
74666;DHT22;71408;50.106;8.694;2023-08-08T08:25:10;22.50;48.60
74666;DHT22;71408;50.106;8.694;2023-08-08T08:27:36;22.60;48.50
74666;DHT22;71408;50.106;8.694;2023-08-08T08:30:03;22.50;48.40
74666;DHT22;71408;50.106;8.694;2023-08-08T08:32:31;22.50;48.50
74666;DHT22;71408;50.106;8.694;2023-08-08T08:34:57;22.50;48.30
74666;DHT22;71408;50.106;8.694;2023-08-08T08:37:22;22.50;48.40
74666;DHT22;71408;50.106;8.694;2023-08-08T08:39:48;22.50;48.30
74666;DHT22;71408;50.106;8.694;2023-08-08T08:42:13;22.50;48.30
74666;DHT22;71408;50.106;8.694;2023-08-08T08:44:39;22.60;48.50
74666;DHT22;71408;50.106;8.694;2023-08-08T08:47:06;22.50;48.50
74666;DHT22;71408;50.106;8.694;2023-08-08T08:49:34;22.50;48.50
74666;DHT22;71408;50.106;8.694;2023-08-08T08:52:00;22.50;48.50
74666;DHT22;71408;50.106;8.694;2023-08-08T08:54:27;22.60;48.50
74666;DHT22;71408;50.106;8.694;2023-08-08T08:56:52;22.60;48.50
74666;DHT22;71408;50.106;8.694;2023-08-08T08:59:18;22.60;48.40
74666;DHT22;71408;50.106;8.694;2023-08-08T09:01:43;22.60;48.40
74666;DHT22;71408;50.106;8.694;2023-08-08T09:04:09;22.60;48.40
74666;DHT22;71408;50.106;8.694;2023-08-08T09:06:35;22.60;48.30
74666;DHT22;71408;50.106;8.694;2023-08-08T09:09:00;22.60;48.30
74666;DHT22;71408;50.106;8.694;2023-08-08T09:11:26;22.60;48.30
74666;DHT22;71408;50.106;8.694;2023-08-08T09:13:51;22.60;48.20
74666;DHT22;71408;50.106;8.694;2023-08-08T09:16:17;22.60;48.20
74666;DHT22;71408;50.106;8.694;2023-08-08T09:18:43;22.60;48.20
74666;DHT22;71408;50.106;8.694;2023-08-08T09:21:08;22.60;48.20
74666;DHT22;71408;50.106;8.694;2023-08-08T09:23:34;22.60;48.20
74666;DHT22;71408;50.106;8.694;2023-08-08T09:25:59;22.60;48.20
74666;DHT22;71408;50.106;8.694;2023-08-08T09:28:24;22.60;48.10
74666;DHT22;71408;50.106;8.694;2023-08-08T09:30:50;22.70;48.10
74666;DHT22;71408;50.106;8.694;2023-08-08T09:33:17;22.70;47.90
74666;DHT22;71408;50.106;8.694;2023-08-08T09:35:42;22.80;48.00
74666;DHT22;71408;50.106;8.694;2023-08-08T09:38:08;22.80;47.90
74666;DHT22;71408;50.106;8.694;2023-08-08T09:40:34;22.80;48.40
74666;DHT22;71408;50.106;8.694;2023-08-08T09:43:00;22.90;47.80
74666;DHT22;71408;50.106;8.694;2023-08-08T09:45:25;22.90;47.90
74666;DHT22;71408;50.106;8.694;2023-08-08T09:47:51;22.90;48.00
74666;DHT22;71408;50.106;8.694;2023-08-08T09:50:17;22.90;47.90
74666;DHT22;71408;50.106;8.694;2023-08-08T09:52:43;22.90;47.80
74666;DHT22;71408;50.106;8.694;2023-08-08T09:55:10;22.90;47.80
74666;DHT22;71408;50.106;8.694;2023-08-08T09:57:36;22.90;47.80
74666;DHT22;71408;50.106;8.694;2023-08-08T10:00:04;22.90;47.60
74666;DHT22;71408;50.106;8.694;2023-08-08T10:02:31;22.90;47.80
74666;DHT22;71408;50.106;8.694;2023-08-08T10:04:57;22.90;47.70
74666;DHT22;71408;50.106;8.694;2023-08-08T10:07:23;22.90;47.70
74666;DHT22;71408;50.106;8.694;2023-08-08T10:09:49;23.00;47.60
74666;DHT22;71408;50.106;8.694;2023-08-08T10:12:14;23.00;47.60
74666;DHT22;71408;50.106;8.694;2023-08-08T10:14:41;23.00;47.60
74666;DHT22;71408;50.106;8.694;2023-08-08T10:17:07;23.00;47.60
74666;DHT22;71408;50.106;8.694;2023-08-08T10:19:33;23.00;47.60
74666;DHT22;71408;50.106;8.694;2023-08-08T10:21:59;23.00;47.50
74666;DHT22;71408;50.106;8.694;2023-08-08T10:24:32;23.10;47.50
74666;DHT22;71408;50.106;8.694;2023-08-08T10:26:58;23.10;47.40
74666;DHT22;71408;50.106;8.694;2023-08-08T10:29:25;23.10;47.40
74666;DHT22;71408;50.106;8.694;2023-08-08T10:32:01;23.10;47.40
74666;DHT22;71408;50.106;8.694;2023-08-08T10:34:44;23.20;47.50
74666;DHT22;71408;50.106;8.694;2023-08-08T10:37:10;23.20;47.40
74666;DHT22;71408;50.106;8.694;2023-08-08T10:39:37;23.20;47.40
74666;DHT22;71408;50.106;8.694;2023-08-08T10:42:03;23.20;47.50
74666;DHT22;71408;50.106;8.694;2023-08-08T10:44:29;23.20;47.40
74666;DHT22;71408;50.106;8.694;2023-08-08T10:46:55;23.20;47.40
74666;DHT22;71408;50.106;8.694;2023-08-08T10:49:20;23.20;47.40
74666;DHT22;71408;50.106;8.694;2023-08-08T10:51:46;23.20;47.40
74666;DHT22;71408;50.106;8.694;2023-08-08T10:54:16;23.20;47.40
74666;DHT22;71408;50.106;8.694;2023-08-08T10:56:48;23.20;47.40
74666;DHT22;71408;50.106;8.694;2023-08-08T10:59:18;23.20;47.40
74666;DHT22;71408;50.106;8.694;2023-08-08T11:01:44;23.20;47.30
74666;DHT22;71408;50.106;8.694;2023-08-08T11:04:10;23.20;47.20
74666;DHT22;71408;50.106;8.694;2023-08-08T11:06:36;23.20;47.20
74666;DHT22;71408;50.106;8.694;2023-08-08T11:09:04;23.20;47.10
74666;DHT22;71408;50.106;8.694;2023-08-08T11:11:35;23.30;47.10
74666;DHT22;71408;50.106;8.694;2023-08-08T11:14:08;23.20;47.10
74666;DHT22;71408;50.106;8.694;2023-08-08T11:16:33;23.30;47.10
74666;DHT22;71408;50.106;8.694;2023-08-08T11:18:59;23.30;47.00
74666;DHT22;71408;50.106;8.694;2023-08-08T11:21:25;23.30;47.10
74666;DHT22;71408;50.106;8.694;2023-08-08T11:23:50;23.30;47.00
74666;DHT22;71408;50.106;8.694;2023-08-08T11:26:19;23.30;47.00
74666;DHT22;71408;50.106;8.694;2023-08-08T11:28:51;23.30;47.00
74666;DHT22;71408;50.106;8.694;2023-08-08T11:31:17;23.30;47.00
74666;DHT22;71408;50.106;8.694;2023-08-08T11:33:43;23.30;47.00
74666;DHT22;71408;50.106;8.694;2023-08-08T11:36:08;23.30;46.90
74666;DHT22;71408;50.106;8.694;2023-08-08T11:38:34;23.30;47.00
74666;DHT22;71408;50.106;8.694;2023-08-08T11:41:00;23.30;46.90
74666;DHT22;71408;50.106;8.694;2023-08-08T11:43:25;23.30;47.00
74666;DHT22;71408;50.106;8.694;2023-08-08T11:45:52;23.40;47.10
74666;DHT22;71408;50.106;8.694;2023-08-08T11:48:20;23.30;47.00
74666;DHT22;71408;50.106;8.694;2023-08-08T11:50:45;23.40;47.00
74666;DHT22;71408;50.106;8.694;2023-08-08T11:53:12;23.40;47.10
74666;DHT22;71408;50.106;8.694;2023-08-08T11:55:37;23.40;47.10
74666;DHT22;71408;50.106;8.694;2023-08-08T11:58:03;23.40;47.20
74666;DHT22;71408;50.106;8.694;2023-08-08T12:00:30;23.40;47.20
74666;DHT22;71408;50.106;8.694;2023-08-08T12:02:56;23.40;47.10
74666;DHT22;71408;50.106;8.694;2023-08-08T12:05:22;23.40;47.10
74666;DHT22;71408;50.106;8.694;2023-08-08T12:07:48;23.40;47.00
74666;DHT22;71408;50.106;8.694;2023-08-08T12:10:17;23.40;47.00
74666;DHT22;71408;50.106;8.694;2023-08-08T12:12:43;23.40;47.00
74666;DHT22;71408;50.106;8.694;2023-08-08T12:15:09;23.40;47.00
74666;DHT22;71408;50.106;8.694;2023-08-08T12:17:38;23.40;46.90
74666;DHT22;71408;50.106;8.694;2023-08-08T12:20:04;23.50;46.90
74666;DHT22;71408;50.106;8.694;2023-08-08T12:22:30;23.40;46.90
74666;DHT22;71408;50.106;8.694;2023-08-08T12:24:56;23.50;46.90
74666;DHT22;71408;50.106;8.694;2023-08-08T12:27:21;23.50;47.00
74666;DHT22;71408;50.106;8.694;2023-08-08T12:29:47;23.50;47.00
74666;DHT22;71408;50.106;8.694;2023-08-08T12:32:12;23.50;46.90
74666;DHT22;71408;50.106;8.694;2023-08-08T12:34:38;23.50;47.00
74666;DHT22;71408;50.106;8.694;2023-08-08T12:37:03;23.50;47.00
74666;DHT22;71408;50.106;8.694;2023-08-08T12:39:29;23.50;47.00
74666;DHT22;71408;50.106;8.694;2023-08-08T12:41:55;23.50;46.90
74666;DHT22;71408;50.106;8.694;2023-08-08T12:44:20;23.60;47.00
74666;DHT22;71408;50.106;8.694;2023-08-08T12:46:46;23.60;46.90
74666;DHT22;71408;50.106;8.694;2023-08-08T12:49:11;23.60;46.90
74666;DHT22;71408;50.106;8.694;2023-08-08T12:51:37;23.50;46.90
74666;DHT22;71408;50.106;8.694;2023-08-08T12:54:02;23.50;46.90
74666;DHT22;71408;50.106;8.694;2023-08-08T12:56:28;23.50;46.90
74666;DHT22;71408;50.106;8.694;2023-08-08T12:58:53;23.50;46.80
74666;DHT22;71408;50.106;8.694;2023-08-08T13:01:19;23.50;46.90
74666;DHT22;71408;50.106;8.694;2023-08-08T13:03:44;23.50;46.90
74666;DHT22;71408;50.106;8.694;2023-08-08T13:06:10;23.50;46.90
74666;DHT22;71408;50.106;8.694;2023-08-08T13:08:37;23.50;46.90
74666;DHT22;71408;50.106;8.694;2023-08-08T13:11:03;23.50;46.90
74666;DHT22;71408;50.106;8.694;2023-08-08T13:13:28;23.50;46.90
74666;DHT22;71408;50.106;8.694;2023-08-08T13:15:54;23.50;46.90
74666;DHT22;71408;50.106;8.694;2023-08-08T13:18:19;23.50;47.00
74666;DHT22;71408;50.106;8.694;2023-08-08T13:20:45;23.50;46.80
74666;DHT22;71408;50.106;8.694;2023-08-08T13:23:10;23.50;46.90
74666;DHT22;71408;50.106;8.694;2023-08-08T13:25:36;23.50;46.80
74666;DHT22;71408;50.106;8.694;2023-08-08T13:28:02;23.50;46.80
74666;DHT22;71408;50.106;8.694;2023-08-08T13:30:28;23.50;46.80
74666;DHT22;71408;50.106;8.694;2023-08-08T13:32:54;23.50;46.90
74666;DHT22;71408;50.106;8.694;2023-08-08T13:35:19;23.50;46.90
74666;DHT22;71408;50.106;8.694;2023-08-08T13:37:45;23.40;46.90
74666;DHT22;71408;50.106;8.694;2023-08-08T13:40:14;23.40;46.90
74666;DHT22;71408;50.106;8.694;2023-08-08T13:42:40;23.50;47.00
74666;DHT22;71408;50.106;8.694;2023-08-08T13:45:06;23.50;46.80
74666;DHT22;71408;50.106;8.694;2023-08-08T13:47:32;23.50;46.90
74666;DHT22;71408;50.106;8.694;2023-08-08T13:49:57;23.50;46.80
74666;DHT22;71408;50.106;8.694;2023-08-08T13:52:23;23.50;46.70
74666;DHT22;71408;50.106;8.694;2023-08-08T13:54:49;23.50;46.70
74666;DHT22;71408;50.106;8.694;2023-08-08T13:57:14;23.50;46.70
74666;DHT22;71408;50.106;8.694;2023-08-08T13:59:40;23.50;46.60
74666;DHT22;71408;50.106;8.694;2023-08-08T14:02:05;23.50;46.60
74666;DHT22;71408;50.106;8.694;2023-08-08T14:04:31;23.50;46.60
74666;DHT22;71408;50.106;8.694;2023-08-08T14:06:57;23.50;46.60
74666;DHT22;71408;50.106;8.694;2023-08-08T14:09:22;23.50;46.60
74666;DHT22;71408;50.106;8.694;2023-08-08T14:11:48;23.50;46.60
74666;DHT22;71408;50.106;8.694;2023-08-08T14:14:13;23.50;46.60
74666;DHT22;71408;50.106;8.694;2023-08-08T14:16:39;23.50;46.50
74666;DHT22;71408;50.106;8.694;2023-08-08T14:19:04;23.50;46.50
74666;DHT22;71408;50.106;8.694;2023-08-08T14:21:30;23.50;46.50
74666;DHT22;71408;50.106;8.694;2023-08-08T14:23:55;23.50;46.50
74666;DHT22;71408;50.106;8.694;2023-08-08T14:26:20;23.50;46.50
74666;DHT22;71408;50.106;8.694;2023-08-08T14:28:46;23.40;46.50
74666;DHT22;71408;50.106;8.694;2023-08-08T14:31:11;23.40;46.60
74666;DHT22;71408;50.106;8.694;2023-08-08T14:33:37;23.40;46.50
74666;DHT22;71408;50.106;8.694;2023-08-08T14:36:02;23.40;46.50
74666;DHT22;71408;50.106;8.694;2023-08-08T14:38:28;23.40;47.10
74666;DHT22;71408;50.106;8.694;2023-08-08T14:40:53;23.40;46.40
74666;DHT22;71408;50.106;8.694;2023-08-08T14:43:19;23.40;46.40
74666;DHT22;71408;50.106;8.694;2023-08-08T14:45:45;23.40;46.40
74666;DHT22;71408;50.106;8.694;2023-08-08T14:48:10;23.40;46.30
74666;DHT22;71408;50.106;8.694;2023-08-08T14:50:36;23.50;46.40
74666;DHT22;71408;50.106;8.694;2023-08-08T14:53:02;23.40;46.40
74666;DHT22;71408;50.106;8.694;2023-08-08T14:55:27;23.40;46.40
74666;DHT22;71408;50.106;8.694;2023-08-08T14:57:53;23.40;46.40
74666;DHT22;71408;50.106;8.694;2023-08-08T15:00:18;23.40;46.40
74666;DHT22;71408;50.106;8.694;2023-08-08T15:02:44;23.40;46.40
74666;DHT22;71408;50.106;8.694;2023-08-08T15:05:09;23.40;46.50
74666;DHT22;71408;50.106;8.694;2023-08-08T15:07:36;23.40;46.40
74666;DHT22;71408;50.106;8.694;2023-08-08T15:10:01;23.40;46.40
74666;DHT22;71408;50.106;8.694;2023-08-08T15:12:27;23.30;46.40
74666;DHT22;71408;50.106;8.694;2023-08-08T15:14:52;23.40;46.40
74666;DHT22;71408;50.106;8.694;2023-08-08T15:17:18;23.40;46.40
74666;DHT22;71408;50.106;8.694;2023-08-08T15:19:43;23.30;46.40
74666;DHT22;71408;50.106;8.694;2023-08-08T15:22:09;23.40;46.40